sensor_id;sensor_type;location;lat;lon;timestamp;P1;durP1;ratioP1;P2;durP2;ratioP2
75073;SDS011;63652;51.526;5.080;2022-10-16T00:00:31;4.03;;;2.60;;
75073;SDS011;63652;51.526;5.080;2022-10-16T00:02:56;4.45;;;2.15;;
75073;SDS011;63652;51.526;5.080;2022-10-16T00:05:22;6.20;;;3.10;;
75073;SDS011;63652;51.526;5.080;2022-10-16T00:07:47;5.25;;;2.03;;
75073;SDS011;63652;51.526;5.080;2022-10-16T00:10:12;6.43;;;2.55;;
75073;SDS011;63652;51.526;5.080;2022-10-16T00:12:38;4.68;;;1.88;;
75073;SDS011;63652;51.526;5.080;2022-10-16T00:15:03;6.03;;;1.80;;
75073;SDS011;63652;51.526;5.080;2022-10-16T00:17:29;6.50;;;2.40;;
75073;SDS011;63652;51.526;5.080;2022-10-16T00:19:55;6.38;;;2.50;;
75073;SDS011;63652;51.526;5.080;2022-10-16T00:22:20;3.20;;;1.90;;
75073;SDS011;63652;51.526;5.080;2022-10-16T00:24:45;7.63;;;2.38;;
75073;SDS011;63652;51.526;5.080;2022-10-16T00:27:11;7.75;;;2.10;;
75073;SDS011;63652;51.526;5.080;2022-10-16T00:29:36;4.47;;;2.00;;
75073;SDS011;63652;51.526;5.080;2022-10-16T00:32:01;5.07;;;2.25;;
75073;SDS011;63652;51.526;5.080;2022-10-16T00:34:27;8.65;;;3.13;;
75073;SDS011;63652;51.526;5.080;2022-10-16T00:36:52;8.85;;;3.50;;
75073;SDS011;63652;51.526;5.080;2022-10-16T00:39:18;7.68;;;3.15;;
75073;SDS011;63652;51.526;5.080;2022-10-16T00:41:44;4.22;;;2.80;;
75073;SDS011;63652;51.526;5.080;2022-10-16T00:44:56;7.72;;;3.63;;
75073;SDS011;63652;51.526;5.080;2022-10-16T00:47:09;5.43;;;2.30;;
75073;SDS011;63652;51.526;5.080;2022-10-16T00:49:36;4.95;;;2.15;;
75073;SDS011;63652;51.526;5.080;2022-10-16T00:52:01;6.15;;;2.63;;
75073;SDS011;63652;51.526;5.080;2022-10-16T00:54:27;3.88;;;1.88;;
75073;SDS011;63652;51.526;5.080;2022-10-16T00:56:55;4.95;;;2.00;;
75073;SDS011;63652;51.526;5.080;2022-10-16T00:59:23;5.93;;;2.20;;
75073;SDS011;63652;51.526;5.080;2022-10-16T01:01:50;5.05;;;2.05;;
75073;SDS011;63652;51.526;5.080;2022-10-16T01:04:16;3.22;;;1.90;;
75073;SDS011;63652;51.526;5.080;2022-10-16T01:09:29;3.15;;;1.85;;
75073;SDS011;63652;51.526;5.080;2022-10-16T01:12:13;4.80;;;1.70;;
75073;SDS011;63652;51.526;5.080;2022-10-16T01:14:54;3.13;;;1.60;;
75073;SDS011;63652;51.526;5.080;2022-10-16T01:22:42;3.70;;;1.52;;
75073;SDS011;63652;51.526;5.080;2022-10-16T01:28:25;3.75;;;1.92;;
75073;SDS011;63652;51.526;5.080;2022-10-16T01:30:53;3.50;;;1.67;;
75073;SDS011;63652;51.526;5.080;2022-10-16T01:33:24;4.80;;;1.70;;
75073;SDS011;63652;51.526;5.080;2022-10-16T01:35:57;3.38;;;1.77;;
75073;SDS011;63652;51.526;5.080;2022-10-16T01:38:34;3.45;;;1.60;;
75073;SDS011;63652;51.526;5.080;2022-10-16T01:41:04;2.65;;;1.30;;
75073;SDS011;63652;51.526;5.080;2022-10-16T01:46:36;3.58;;;1.83;;
75073;SDS011;63652;51.526;5.080;2022-10-16T01:49:03;3.47;;;1.20;;
75073;SDS011;63652;51.526;5.080;2022-10-16T01:51:29;4.57;;;1.95;;
75073;SDS011;63652;51.526;5.080;2022-10-16T01:53:55;3.15;;;1.92;;
75073;SDS011;63652;51.526;5.080;2022-10-16T01:56:22;5.53;;;1.83;;
75073;SDS011;63652;51.526;5.080;2022-10-16T01:59:00;3.15;;;1.50;;
75073;SDS011;63652;51.526;5.080;2022-10-16T02:01:28;4.25;;;1.40;;
75073;SDS011;63652;51.526;5.080;2022-10-16T02:03:56;1.90;;;0.90;;
75073;SDS011;63652;51.526;5.080;2022-10-16T02:06:23;4.05;;;1.40;;
75073;SDS011;63652;51.526;5.080;2022-10-16T02:08:50;2.42;;;1.20;;
75073;SDS011;63652;51.526;5.080;2022-10-16T02:11:15;2.22;;;0.90;;
75073;SDS011;63652;51.526;5.080;2022-10-16T02:16:06;3.40;;;1.10;;
75073;SDS011;63652;51.526;5.080;2022-10-16T02:18:31;2.35;;;0.80;;
75073;SDS011;63652;51.526;5.080;2022-10-16T02:20:58;5.97;;;1.40;;
75073;SDS011;63652;51.526;5.080;2022-10-16T02:31:14;2.30;;;1.00;;
75073;SDS011;63652;51.526;5.080;2022-10-16T02:33:41;2.60;;;1.17;;
75073;SDS011;63652;51.526;5.080;2022-10-16T02:36:08;2.85;;;1.27;;
75073;SDS011;63652;51.526;5.080;2022-10-16T02:38:33;5.97;;;1.58;;
75073;SDS011;63652;51.526;5.080;2022-10-16T02:40:59;6.65;;;1.95;;
75073;SDS011;63652;51.526;5.080;2022-10-16T02:43:24;4.57;;;2.45;;
75073;SDS011;63652;51.526;5.080;2022-10-16T02:45:50;3.17;;;1.20;;
75073;SDS011;63652;51.526;5.080;2022-10-16T02:48:15;2.88;;;1.35;;
75073;SDS011;63652;51.526;5.080;2022-10-16T02:50:41;3.92;;;1.67;;
75073;SDS011;63652;51.526;5.080;2022-10-16T02:53:06;4.35;;;1.52;;
75073;SDS011;63652;51.526;5.080;2022-10-16T02:55:32;3.10;;;1.58;;
75073;SDS011;63652;51.526;5.080;2022-10-16T02:57:57;3.00;;;1.30;;
75073;SDS011;63652;51.526;5.080;2022-10-16T03:00:22;6.10;;;1.85;;
75073;SDS011;63652;51.526;5.080;2022-10-16T03:02:48;3.95;;;1.77;;
75073;SDS011;63652;51.526;5.080;2022-10-16T03:05:13;3.67;;;2.10;;
75073;SDS011;63652;51.526;5.080;2022-10-16T03:07:39;4.50;;;1.77;;
75073;SDS011;63652;51.526;5.080;2022-10-16T03:10:05;6.63;;;1.83;;
75073;SDS011;63652;51.526;5.080;2022-10-16T03:12:31;3.00;;;1.50;;
75073;SDS011;63652;51.526;5.080;2022-10-16T03:14:56;3.40;;;1.70;;
75073;SDS011;63652;51.526;5.080;2022-10-16T03:17:22;4.20;;;1.60;;
75073;SDS011;63652;51.526;5.080;2022-10-16T03:19:48;4.30;;;1.90;;
75073;SDS011;63652;51.526;5.080;2022-10-16T03:22:14;3.33;;;1.65;;
75073;SDS011;63652;51.526;5.080;2022-10-16T03:24:39;3.05;;;1.02;;
75073;SDS011;63652;51.526;5.080;2022-10-16T03:27:04;3.05;;;1.17;;
75073;SDS011;63652;51.526;5.080;2022-10-16T03:29:30;3.33;;;2.30;;
75073;SDS011;63652;51.526;5.080;2022-10-16T03:31:57;2.90;;;1.60;;
75073;SDS011;63652;51.526;5.080;2022-10-16T03:34:22;4.60;;;1.80;;
75073;SDS011;63652;51.526;5.080;2022-10-16T03:36:47;3.75;;;1.73;;
75073;SDS011;63652;51.526;5.080;2022-10-16T03:39:13;2.65;;;1.50;;
75073;SDS011;63652;51.526;5.080;2022-10-16T03:41:38;3.90;;;1.48;;
75073;SDS011;63652;51.526;5.080;2022-10-16T03:44:04;4.85;;;1.63;;
75073;SDS011;63652;51.526;5.080;2022-10-16T03:46:30;4.05;;;1.52;;
75073;SDS011;63652;51.526;5.080;2022-10-16T03:48:55;5.93;;;1.85;;
75073;SDS011;63652;51.526;5.080;2022-10-16T03:51:20;3.05;;;1.38;;
75073;SDS011;63652;51.526;5.080;2022-10-16T03:53:49;2.90;;;1.38;;
75073;SDS011;63652;51.526;5.080;2022-10-16T03:56:18;5.45;;;1.73;;
75073;SDS011;63652;51.526;5.080;2022-10-16T03:58:43;3.72;;;1.60;;
75073;SDS011;63652;51.526;5.080;2022-10-16T04:01:08;3.17;;;1.50;;
75073;SDS011;63652;51.526;5.080;2022-10-16T04:03:34;4.15;;;1.17;;
75073;SDS011;63652;51.526;5.080;2022-10-16T04:05:59;7.20;;;1.83;;
75073;SDS011;63652;51.526;5.080;2022-10-16T04:08:25;7.28;;;1.60;;
75073;SDS011;63652;51.526;5.080;2022-10-16T04:10:50;4.95;;;1.52;;
75073;SDS011;63652;51.526;5.080;2022-10-16T04:13:16;5.35;;;2.13;;
75073;SDS011;63652;51.526;5.080;2022-10-16T04:15:41;2.90;;;1.20;;
75073;SDS011;63652;51.526;5.080;2022-10-16T04:18:10;2.90;;;1.17;;
75073;SDS011;63652;51.526;5.080;2022-10-16T04:20:35;3.25;;;1.40;;
75073;SDS011;63652;51.526;5.080;2022-10-16T04:23:01;3.42;;;1.27;;
75073;SDS011;63652;51.526;5.080;2022-10-16T04:25:26;4.15;;;1.50;;
75073;SDS011;63652;51.526;5.080;2022-10-16T04:27:52;4.30;;;1.60;;
75073;SDS011;63652;51.526;5.080;2022-10-16T04:30:18;3.17;;;1.60;;
75073;SDS011;63652;51.526;5.080;2022-10-16T04:32:47;3.72;;;1.50;;
75073;SDS011;63652;51.526;5.080;2022-10-16T04:35:13;5.68;;;1.60;;
75073;SDS011;63652;51.526;5.080;2022-10-16T04:37:39;2.78;;;1.30;;
75073;SDS011;63652;51.526;5.080;2022-10-16T04:40:04;3.03;;;1.40;;
75073;SDS011;63652;51.526;5.080;2022-10-16T04:42:30;2.90;;;1.20;;
75073;SDS011;63652;51.526;5.080;2022-10-16T04:44:55;7.07;;;1.20;;
75073;SDS011;63652;51.526;5.080;2022-10-16T04:47:21;4.38;;;1.45;;
75073;SDS011;63652;51.526;5.080;2022-10-16T04:49:46;4.10;;;1.65;;
75073;SDS011;63652;51.526;5.080;2022-10-16T04:52:12;3.08;;;1.77;;
75073;SDS011;63652;51.526;5.080;2022-10-16T04:54:37;5.50;;;1.48;;
75073;SDS011;63652;51.526;5.080;2022-10-16T04:57:02;3.95;;;1.40;;
75073;SDS011;63652;51.526;5.080;2022-10-16T04:59:29;2.40;;;1.20;;
75073;SDS011;63652;51.526;5.080;2022-10-16T05:01:55;3.15;;;1.33;;
75073;SDS011;63652;51.526;5.080;2022-10-16T05:04:20;5.80;;;1.38;;
75073;SDS011;63652;51.526;5.080;2022-10-16T05:06:47;2.47;;;0.88;;
75073;SDS011;63652;51.526;5.080;2022-10-16T05:09:12;3.70;;;1.55;;
75073;SDS011;63652;51.526;5.080;2022-10-16T05:11:38;3.78;;;1.10;;
75073;SDS011;63652;51.526;5.080;2022-10-16T05:14:03;2.70;;;1.25;;
75073;SDS011;63652;51.526;5.080;2022-10-16T05:16:29;3.78;;;1.50;;
75073;SDS011;63652;51.526;5.080;2022-10-16T05:18:55;3.70;;;1.33;;
75073;SDS011;63652;51.526;5.080;2022-10-16T05:21:21;2.70;;;1.38;;
75073;SDS011;63652;51.526;5.080;2022-10-16T05:23:46;2.50;;;1.20;;
75073;SDS011;63652;51.526;5.080;2022-10-16T05:26:11;4.63;;;1.65;;
75073;SDS011;63652;51.526;5.080;2022-10-16T05:28:37;4.43;;;1.27;;
75073;SDS011;63652;51.526;5.080;2022-10-16T05:31:06;6.80;;;1.90;;
75073;SDS011;63652;51.526;5.080;2022-10-16T05:33:32;5.63;;;1.40;;
75073;SDS011;63652;51.526;5.080;2022-10-16T05:36:00;5.00;;;2.22;;
75073;SDS011;63652;51.526;5.080;2022-10-16T05:40:53;8.45;;;1.63;;
75073;SDS011;63652;51.526;5.080;2022-10-16T05:43:19;7.15;;;1.95;;
75073;SDS011;63652;51.526;5.080;2022-10-16T05:45:44;4.90;;;1.77;;
75073;SDS011;63652;51.526;5.080;2022-10-16T05:48:18;4.15;;;1.35;;
75073;SDS011;63652;51.526;5.080;2022-10-16T05:50:44;5.32;;;1.55;;
75073;SDS011;63652;51.526;5.080;2022-10-16T05:53:09;4.50;;;1.30;;
75073;SDS011;63652;51.526;5.080;2022-10-16T05:55:34;8.50;;;2.15;;
75073;SDS011;63652;51.526;5.080;2022-10-16T05:58:00;4.45;;;1.40;;
75073;SDS011;63652;51.526;5.080;2022-10-16T06:00:25;4.30;;;1.33;;
75073;SDS011;63652;51.526;5.080;2022-10-16T06:02:50;3.55;;;1.73;;
75073;SDS011;63652;51.526;5.080;2022-10-16T06:05:16;4.15;;;1.63;;
75073;SDS011;63652;51.526;5.080;2022-10-16T06:07:41;5.20;;;1.90;;
75073;SDS011;63652;51.526;5.080;2022-10-16T06:10:07;4.50;;;1.60;;
75073;SDS011;63652;51.526;5.080;2022-10-16T06:12:32;3.42;;;1.45;;
75073;SDS011;63652;51.526;5.080;2022-10-16T06:14:58;3.85;;;1.60;;
75073;SDS011;63652;51.526;5.080;2022-10-16T06:17:23;3.33;;;1.48;;
75073;SDS011;63652;51.526;5.080;2022-10-16T06:19:48;4.50;;;2.05;;
75073;SDS011;63652;51.526;5.080;2022-10-16T06:22:14;3.25;;;1.60;;
75073;SDS011;63652;51.526;5.080;2022-10-16T06:24:39;5.40;;;1.70;;
75073;SDS011;63652;51.526;5.080;2022-10-16T06:27:04;4.03;;;1.80;;
75073;SDS011;63652;51.526;5.080;2022-10-16T06:29:30;4.78;;;1.40;;
75073;SDS011;63652;51.526;5.080;2022-10-16T06:31:55;3.45;;;1.30;;
75073;SDS011;63652;51.526;5.080;2022-10-16T06:34:21;3.70;;;1.73;;
75073;SDS011;63652;51.526;5.080;2022-10-16T06:36:46;6.03;;;1.65;;
75073;SDS011;63652;51.526;5.080;2022-10-16T06:39:11;4.25;;;1.45;;
75073;SDS011;63652;51.526;5.080;2022-10-16T06:41:37;4.13;;;1.40;;
75073;SDS011;63652;51.526;5.080;2022-10-16T06:44:06;7.68;;;1.80;;
75073;SDS011;63652;51.526;5.080;2022-10-16T06:46:32;3.22;;;1.58;;
75073;SDS011;63652;51.526;5.080;2022-10-16T06:48:58;3.80;;;1.27;;
75073;SDS011;63652;51.526;5.080;2022-10-16T06:51:24;4.95;;;1.42;;
75073;SDS011;63652;51.526;5.080;2022-10-16T06:53:54;4.47;;;1.55;;
75073;SDS011;63652;51.526;5.080;2022-10-16T06:56:25;6.45;;;1.73;;
75073;SDS011;63652;51.526;5.080;2022-10-16T06:58:51;6.88;;;2.15;;
75073;SDS011;63652;51.526;5.080;2022-10-16T07:01:18;6.20;;;2.10;;
75073;SDS011;63652;51.526;5.080;2022-10-16T07:03:45;3.60;;;1.50;;
75073;SDS011;63652;51.526;5.080;2022-10-16T07:06:12;5.28;;;2.17;;
75073;SDS011;63652;51.526;5.080;2022-10-16T07:08:43;7.32;;;1.88;;
75073;SDS011;63652;51.526;5.080;2022-10-16T07:11:10;4.57;;;1.52;;
75073;SDS011;63652;51.526;5.080;2022-10-16T07:13:38;3.75;;;1.70;;
75073;SDS011;63652;51.526;5.080;2022-10-16T07:16:05;8.15;;;2.20;;
75073;SDS011;63652;51.526;5.080;2022-10-16T07:18:31;5.47;;;2.20;;
75073;SDS011;63652;51.526;5.080;2022-10-16T07:21:07;7.25;;;2.22;;
75073;SDS011;63652;51.526;5.080;2022-10-16T07:23:40;6.05;;;1.85;;
75073;SDS011;63652;51.526;5.080;2022-10-16T07:26:06;5.95;;;2.05;;
75073;SDS011;63652;51.526;5.080;2022-10-16T07:28:32;5.72;;;2.03;;
75073;SDS011;63652;51.526;5.080;2022-10-16T07:31:01;5.10;;;1.20;;
75073;SDS011;63652;51.526;5.080;2022-10-16T07:35:53;3.15;;;1.73;;
75073;SDS011;63652;51.526;5.080;2022-10-16T07:38:20;3.67;;;1.80;;
75073;SDS011;63652;51.526;5.080;2022-10-16T07:40:45;6.07;;;1.83;;
75073;SDS011;63652;51.526;5.080;2022-10-16T07:43:11;6.00;;;2.30;;
75073;SDS011;63652;51.526;5.080;2022-10-16T07:45:37;5.50;;;1.95;;
75073;SDS011;63652;51.526;5.080;2022-10-16T07:48:10;6.53;;;2.45;;
75073;SDS011;63652;51.526;5.080;2022-10-16T07:50:36;4.07;;;2.20;;
75073;SDS011;63652;51.526;5.080;2022-10-16T07:53:01;6.28;;;1.80;;
75073;SDS011;63652;51.526;5.080;2022-10-16T07:55:26;3.58;;;1.60;;
75073;SDS011;63652;51.526;5.080;2022-10-16T07:57:52;3.72;;;1.63;;
75073;SDS011;63652;51.526;5.080;2022-10-16T08:00:17;5.78;;;2.00;;
75073;SDS011;63652;51.526;5.080;2022-10-16T08:02:42;3.97;;;2.03;;
75073;SDS011;63652;51.526;5.080;2022-10-16T08:05:08;5.85;;;2.08;;
75073;SDS011;63652;51.526;5.080;2022-10-16T08:07:33;4.88;;;2.03;;
75073;SDS011;63652;51.526;5.080;2022-10-16T08:09:59;4.53;;;2.08;;
75073;SDS011;63652;51.526;5.080;2022-10-16T08:12:27;6.88;;;1.80;;
75073;SDS011;63652;51.526;5.080;2022-10-16T08:14:52;4.68;;;1.85;;
75073;SDS011;63652;51.526;5.080;2022-10-16T08:17:18;4.28;;;2.55;;
75073;SDS011;63652;51.526;5.080;2022-10-16T08:19:44;5.68;;;1.80;;
75073;SDS011;63652;51.526;5.080;2022-10-16T08:22:12;6.60;;;2.08;;
75073;SDS011;63652;51.526;5.080;2022-10-16T08:24:38;5.97;;;1.83;;
75073;SDS011;63652;51.526;5.080;2022-10-16T08:27:04;6.10;;;1.63;;
75073;SDS011;63652;51.526;5.080;2022-10-16T08:29:29;5.70;;;1.92;;
75073;SDS011;63652;51.526;5.080;2022-10-16T08:31:55;4.53;;;2.03;;
75073;SDS011;63652;51.526;5.080;2022-10-16T08:34:20;3.92;;;1.38;;
75073;SDS011;63652;51.526;5.080;2022-10-16T08:36:45;4.93;;;1.73;;
75073;SDS011;63652;51.526;5.080;2022-10-16T08:39:11;4.70;;;1.90;;
75073;SDS011;63652;51.526;5.080;2022-10-16T08:50:17;4.07;;;1.40;;
75073;SDS011;63652;51.526;5.080;2022-10-16T08:52:49;4.07;;;1.60;;
75073;SDS011;63652;51.526;5.080;2022-10-16T08:57:51;3.90;;;1.70;;
75073;SDS011;63652;51.526;5.080;2022-10-16T09:00:17;5.45;;;1.90;;
75073;SDS011;63652;51.526;5.080;2022-10-16T09:06:15;5.88;;;1.70;;
75073;SDS011;63652;51.526;5.080;2022-10-16T09:08:41;4.15;;;1.50;;
75073;SDS011;63652;51.526;5.080;2022-10-16T09:13:57;5.72;;;1.60;;
75073;SDS011;63652;51.526;5.080;2022-10-16T09:16:30;4.85;;;1.90;;
75073;SDS011;63652;51.526;5.080;2022-10-16T09:21:31;7.38;;;2.58;;
75073;SDS011;63652;51.526;5.080;2022-10-16T09:24:00;4.97;;;1.30;;
75073;SDS011;63652;51.526;5.080;2022-10-16T09:26:34;6.95;;;1.55;;
75073;SDS011;63652;51.526;5.080;2022-10-16T09:29:00;6.50;;;1.52;;
75073;SDS011;63652;51.526;5.080;2022-10-16T09:31:25;7.03;;;1.35;;
75073;SDS011;63652;51.526;5.080;2022-10-16T09:34:00;7.07;;;1.70;;
75073;SDS011;63652;51.526;5.080;2022-10-16T09:36:31;4.65;;;1.05;;
75073;SDS011;63652;51.526;5.080;2022-10-16T09:39:06;7.10;;;1.58;;
75073;SDS011;63652;51.526;5.080;2022-10-16T09:41:37;5.68;;;1.67;;
75073;SDS011;63652;51.526;5.080;2022-10-16T09:44:04;7.38;;;2.42;;
75073;SDS011;63652;51.526;5.080;2022-10-16T09:46:32;5.30;;;1.70;;
75073;SDS011;63652;51.526;5.080;2022-10-16T09:48:59;5.18;;;1.20;;
75073;SDS011;63652;51.526;5.080;2022-10-16T09:51:27;6.90;;;1.98;;
75073;SDS011;63652;51.526;5.080;2022-10-16T09:53:56;5.00;;;2.13;;
75073;SDS011;63652;51.526;5.080;2022-10-16T09:56:29;7.50;;;1.60;;
75073;SDS011;63652;51.526;5.080;2022-10-16T09:58:58;7.18;;;1.20;;
75073;SDS011;63652;51.526;5.080;2022-10-16T10:01:35;6.53;;;1.67;;
75073;SDS011;63652;51.526;5.080;2022-10-16T10:04:05;7.95;;;1.60;;
75073;SDS011;63652;51.526;5.080;2022-10-16T10:06:33;8.48;;;1.42;;
75073;SDS011;63652;51.526;5.080;2022-10-16T10:09:06;5.55;;;1.33;;
75073;SDS011;63652;51.526;5.080;2022-10-16T10:12:00;10.98;;;1.88;;
75073;SDS011;63652;51.526;5.080;2022-10-16T10:14:39;6.53;;;1.33;;
75073;SDS011;63652;51.526;5.080;2022-10-16T10:19:44;13.25;;;1.70;;
75073;SDS011;63652;51.526;5.080;2022-10-16T10:22:29;7.88;;;1.52;;
75073;SDS011;63652;51.526;5.080;2022-10-16T10:38:33;9.65;;;1.80;;
75073;SDS011;63652;51.526;5.080;2022-10-16T10:46:57;10.75;;;1.60;;
75073;SDS011;63652;51.526;5.080;2022-10-16T10:49:41;10.43;;;1.58;;
75073;SDS011;63652;51.526;5.080;2022-10-16T11:01:14;6.80;;;1.45;;
75073;SDS011;63652;51.526;5.080;2022-10-16T11:06:26;8.88;;;1.48;;
75073;SDS011;63652;51.526;5.080;2022-10-16T11:08:57;6.10;;;1.20;;
75073;SDS011;63652;51.526;5.080;2022-10-16T11:12:11;7.57;;;1.65;;
75073;SDS011;63652;51.526;5.080;2022-10-16T11:14:29;8.00;;;1.45;;
75073;SDS011;63652;51.526;5.080;2022-10-16T11:19:35;5.20;;;1.33;;
75073;SDS011;63652;51.526;5.080;2022-10-16T11:22:03;10.18;;;1.88;;
75073;SDS011;63652;51.526;5.080;2022-10-16T11:24:42;12.40;;;3.45;;
75073;SDS011;63652;51.526;5.080;2022-10-16T11:27:14;11.20;;;2.22;;
75073;SDS011;63652;51.526;5.080;2022-10-16T11:35:53;9.93;;;2.45;;
75073;SDS011;63652;51.526;5.080;2022-10-16T11:44:33;10.43;;;2.03;;
75073;SDS011;63652;51.526;5.080;2022-10-16T11:49:30;8.32;;;1.90;;
75073;SDS011;63652;51.526;5.080;2022-10-16T11:52:00;8.02;;;1.17;;
75073;SDS011;63652;51.526;5.080;2022-10-16T11:54:36;10.07;;;2.80;;
75073;SDS011;63652;51.526;5.080;2022-10-16T11:57:18;6.05;;;2.08;;
75073;SDS011;63652;51.526;5.080;2022-10-16T12:08:40;8.82;;;1.40;;
75073;SDS011;63652;51.526;5.080;2022-10-16T12:11:07;8.88;;;1.25;;
75073;SDS011;63652;51.526;5.080;2022-10-16T12:13:41;8.18;;;1.83;;
75073;SDS011;63652;51.526;5.080;2022-10-16T12:18:37;6.03;;;1.35;;
75073;SDS011;63652;51.526;5.080;2022-10-16T12:21:06;12.05;;;1.50;;
75073;SDS011;63652;51.526;5.080;2022-10-16T12:23:33;13.45;;;1.73;;
75073;SDS011;63652;51.526;5.080;2022-10-16T12:26:02;7.60;;;1.75;;
75073;SDS011;63652;51.526;5.080;2022-10-16T12:28:29;5.65;;;1.35;;
75073;SDS011;63652;51.526;5.080;2022-10-16T12:30:57;8.07;;;1.92;;
75073;SDS011;63652;51.526;5.080;2022-10-16T12:33:25;7.82;;;1.75;;
75073;SDS011;63652;51.526;5.080;2022-10-16T12:35:52;9.48;;;1.40;;
75073;SDS011;63652;51.526;5.080;2022-10-16T12:38:19;8.82;;;1.52;;
75073;SDS011;63652;51.526;5.080;2022-10-16T12:40:46;10.68;;;1.50;;
75073;SDS011;63652;51.526;5.080;2022-10-16T12:45:45;7.15;;;1.73;;
75073;SDS011;63652;51.526;5.080;2022-10-16T12:48:21;3.90;;;0.88;;
75073;SDS011;63652;51.526;5.080;2022-10-16T12:50:47;6.78;;;1.08;;
75073;SDS011;63652;51.526;5.080;2022-10-16T12:53:20;9.40;;;1.35;;
75073;SDS011;63652;51.526;5.080;2022-10-16T12:55:57;7.90;;;1.85;;
75073;SDS011;63652;51.526;5.080;2022-10-16T12:59:17;7.78;;;1.42;;
75073;SDS011;63652;51.526;5.080;2022-10-16T13:07:06;7.25;;;1.13;;
75073;SDS011;63652;51.526;5.080;2022-10-16T13:09:56;7.10;;;1.10;;
75073;SDS011;63652;51.526;5.080;2022-10-16T13:12:36;4.13;;;1.13;;
75073;SDS011;63652;51.526;5.080;2022-10-16T13:20:28;6.85;;;1.35;;
75073;SDS011;63652;51.526;5.080;2022-10-16T13:23:09;4.60;;;1.33;;
75073;SDS011;63652;51.526;5.080;2022-10-16T13:28:13;4.40;;;1.30;;
75073;SDS011;63652;51.526;5.080;2022-10-16T13:33:18;4.43;;;1.35;;
75073;SDS011;63652;51.526;5.080;2022-10-16T13:35:50;6.45;;;1.10;;
75073;SDS011;63652;51.526;5.080;2022-10-16T13:38:18;6.07;;;0.88;;
75073;SDS011;63652;51.526;5.080;2022-10-16T13:40:53;3.35;;;0.80;;
75073;SDS011;63652;51.526;5.080;2022-10-16T13:43:21;7.15;;;0.90;;
75073;SDS011;63652;51.526;5.080;2022-10-16T13:45:52;7.95;;;1.10;;
75073;SDS011;63652;51.526;5.080;2022-10-16T13:48:19;4.72;;;1.00;;
75073;SDS011;63652;51.526;5.080;2022-10-16T13:50:44;4.88;;;1.25;;
75073;SDS011;63652;51.526;5.080;2022-10-16T13:53:13;6.10;;;1.30;;
75073;SDS011;63652;51.526;5.080;2022-10-16T13:55:38;4.88;;;0.70;;
75073;SDS011;63652;51.526;5.080;2022-10-16T13:58:07;3.55;;;1.10;;
75073;SDS011;63652;51.526;5.080;2022-10-16T14:00:33;6.20;;;1.00;;
75073;SDS011;63652;51.526;5.080;2022-10-16T14:03:01;4.05;;;0.63;;
75073;SDS011;63652;51.526;5.080;2022-10-16T14:05:28;4.85;;;0.90;;
75073;SDS011;63652;51.526;5.080;2022-10-16T14:07:54;8.07;;;1.85;;
75073;SDS011;63652;51.526;5.080;2022-10-16T14:10:30;4.78;;;0.82;;
75073;SDS011;63652;51.526;5.080;2022-10-16T14:13:01;3.53;;;1.20;;
75073;SDS011;63652;51.526;5.080;2022-10-16T14:15:27;6.05;;;1.40;;
75073;SDS011;63652;51.526;5.080;2022-10-16T14:17:54;6.47;;;1.00;;
75073;SDS011;63652;51.526;5.080;2022-10-16T14:20:20;7.88;;;1.17;;
75073;SDS011;63652;51.526;5.080;2022-10-16T14:22:57;3.92;;;1.70;;
75073;SDS011;63652;51.526;5.080;2022-10-16T14:25:26;4.72;;;0.95;;
75073;SDS011;63652;51.526;5.080;2022-10-16T14:27:57;4.53;;;0.75;;
75073;SDS011;63652;51.526;5.080;2022-10-16T14:30:24;7.18;;;0.98;;
75073;SDS011;63652;51.526;5.080;2022-10-16T14:32:59;5.10;;;1.27;;
75073;SDS011;63652;51.526;5.080;2022-10-16T14:35:34;7.57;;;1.38;;
75073;SDS011;63652;51.526;5.080;2022-10-16T14:38:02;4.82;;;0.88;;
75073;SDS011;63652;51.526;5.080;2022-10-16T14:40:29;4.35;;;1.10;;
75073;SDS011;63652;51.526;5.080;2022-10-16T14:42:57;3.58;;;0.80;;
75073;SDS011;63652;51.526;5.080;2022-10-16T14:45:24;3.53;;;0.70;;
75073;SDS011;63652;51.526;5.080;2022-10-16T14:47:53;4.95;;;1.25;;
75073;SDS011;63652;51.526;5.080;2022-10-16T14:50:20;6.03;;;1.15;;
75073;SDS011;63652;51.526;5.080;2022-10-16T14:52:46;4.00;;;1.13;;
75073;SDS011;63652;51.526;5.080;2022-10-16T14:55:11;4.35;;;1.02;;
75073;SDS011;63652;51.526;5.080;2022-10-16T14:57:37;8.02;;;1.27;;
75073;SDS011;63652;51.526;5.080;2022-10-16T15:00:06;4.25;;;1.67;;
75073;SDS011;63652;51.526;5.080;2022-10-16T15:02:36;3.20;;;0.95;;
75073;SDS011;63652;51.526;5.080;2022-10-16T15:07:57;3.63;;;0.80;;
75073;SDS011;63652;51.526;5.080;2022-10-16T15:10:23;5.85;;;0.88;;
75073;SDS011;63652;51.526;5.080;2022-10-16T15:12:49;5.00;;;1.00;;
75073;SDS011;63652;51.526;5.080;2022-10-16T15:17:53;3.78;;;1.10;;
75073;SDS011;63652;51.526;5.080;2022-10-16T15:20:24;4.40;;;1.10;;
75073;SDS011;63652;51.526;5.080;2022-10-16T15:22:50;4.93;;;0.80;;
75073;SDS011;63652;51.526;5.080;2022-10-16T15:28:07;4.13;;;1.00;;
75073;SDS011;63652;51.526;5.080;2022-10-16T15:30:33;5.60;;;1.02;;
75073;SDS011;63652;51.526;5.080;2022-10-16T15:32:59;7.88;;;0.82;;
75073;SDS011;63652;51.526;5.080;2022-10-16T15:35:24;5.88;;;0.88;;
75073;SDS011;63652;51.526;5.080;2022-10-16T15:37:50;3.92;;;0.93;;
75073;SDS011;63652;51.526;5.080;2022-10-16T15:40:16;4.03;;;0.95;;
75073;SDS011;63652;51.526;5.080;2022-10-16T15:42:42;5.80;;;1.42;;
75073;SDS011;63652;51.526;5.080;2022-10-16T15:45:08;4.22;;;0.90;;
75073;SDS011;63652;51.526;5.080;2022-10-16T15:47:34;6.97;;;1.27;;
75073;SDS011;63652;51.526;5.080;2022-10-16T15:50:00;5.30;;;0.80;;
75073;SDS011;63652;51.526;5.080;2022-10-16T15:52:25;3.25;;;0.82;;
75073;SDS011;63652;51.526;5.080;2022-10-16T15:54:51;6.43;;;1.00;;
75073;SDS011;63652;51.526;5.080;2022-10-16T15:57:16;5.57;;;1.00;;
75073;SDS011;63652;51.526;5.080;2022-10-16T15:59:42;3.72;;;0.80;;
75073;SDS011;63652;51.526;5.080;2022-10-16T16:02:08;6.93;;;0.98;;
75073;SDS011;63652;51.526;5.080;2022-10-16T16:04:33;6.82;;;0.90;;
75073;SDS011;63652;51.526;5.080;2022-10-16T16:07:02;4.30;;;1.20;;
75073;SDS011;63652;51.526;5.080;2022-10-16T16:09:30;5.38;;;1.23;;
75073;SDS011;63652;51.526;5.080;2022-10-16T16:11:55;6.90;;;1.52;;
75073;SDS011;63652;51.526;5.080;2022-10-16T16:14:21;6.63;;;1.42;;
75073;SDS011;63652;51.526;5.080;2022-10-16T16:16:47;5.45;;;1.20;;
75073;SDS011;63652;51.526;5.080;2022-10-16T16:19:15;6.00;;;1.08;;
75073;SDS011;63652;51.526;5.080;2022-10-16T16:21:45;4.38;;;1.30;;
75073;SDS011;63652;51.526;5.080;2022-10-16T16:24:11;4.40;;;1.27;;
75073;SDS011;63652;51.526;5.080;2022-10-16T16:26:36;8.63;;;1.33;;
75073;SDS011;63652;51.526;5.080;2022-10-16T16:29:04;4.90;;;1.15;;
75073;SDS011;63652;51.526;5.080;2022-10-16T16:31:31;4.18;;;1.15;;
75073;SDS011;63652;51.526;5.080;2022-10-16T16:33:57;5.32;;;1.20;;
75073;SDS011;63652;51.526;5.080;2022-10-16T16:36:23;4.10;;;1.20;;
75073;SDS011;63652;51.526;5.080;2022-10-16T16:38:49;6.00;;;1.63;;
75073;SDS011;63652;51.526;5.080;2022-10-16T16:44:01;3.47;;;1.20;;
75073;SDS011;63652;51.526;5.080;2022-10-16T16:46:29;4.50;;;1.33;;
75073;SDS011;63652;51.526;5.080;2022-10-16T16:48:57;3.45;;;1.30;;
75073;SDS011;63652;51.526;5.080;2022-10-16T16:51:23;5.20;;;1.30;;
75073;SDS011;63652;51.526;5.080;2022-10-16T16:53:50;7.72;;;1.38;;
75073;SDS011;63652;51.526;5.080;2022-10-16T16:56:17;4.60;;;1.42;;
75073;SDS011;63652;51.526;5.080;2022-10-16T16:58:51;2.55;;;1.10;;
75073;SDS011;63652;51.526;5.080;2022-10-16T17:01:17;6.07;;;1.23;;
75073;SDS011;63652;51.526;5.080;2022-10-16T17:03:44;5.78;;;2.05;;
75073;SDS011;63652;51.526;5.080;2022-10-16T17:06:10;4.43;;;1.60;;
75073;SDS011;63652;51.526;5.080;2022-10-16T17:08:37;3.38;;;1.27;;
75073;SDS011;63652;51.526;5.080;2022-10-16T17:11:02;3.63;;;1.27;;
75073;SDS011;63652;51.526;5.080;2022-10-16T17:13:29;5.60;;;1.20;;